sensor_id;sensor_type;location;lat;lon;timestamp;P1;durP1;ratioP1;P2;durP2;ratioP2
53650;SDS011;39552;45.776;15.892;2022-09-09T00:00:41;7.60;;;6.75;;
53650;SDS011;39552;45.776;15.892;2022-09-09T00:03:14;9.75;;;5.90;;
53650;SDS011;39552;45.776;15.892;2022-09-09T00:05:45;9.77;;;6.40;;
53650;SDS011;39552;45.776;15.892;2022-09-09T00:08:24;8.95;;;6.55;;
53650;SDS011;39552;45.776;15.892;2022-09-09T00:11:01;9.48;;;6.15;;
53650;SDS011;39552;45.776;15.892;2022-09-09T00:13:32;6.85;;;5.40;;
53650;SDS011;39552;45.776;15.892;2022-09-09T00:16:04;11.20;;;6.18;;
53650;SDS011;39552;45.776;15.892;2022-09-09T00:18:40;11.35;;;5.72;;
53650;SDS011;39552;45.776;15.892;2022-09-09T00:21:17;6.75;;;5.63;;
53650;SDS011;39552;45.776;15.892;2022-09-09T00:23:45;9.75;;;6.88;;
53650;SDS011;39552;45.776;15.892;2022-09-09T00:26:19;9.82;;;6.55;;
53650;SDS011;39552;45.776;15.892;2022-09-09T00:28:55;9.07;;;6.00;;
53650;SDS011;39552;45.776;15.892;2022-09-09T00:31:29;7.35;;;6.43;;
53650;SDS011;39552;45.776;15.892;2022-09-09T00:33:58;7.03;;;6.32;;
53650;SDS011;39552;45.776;15.892;2022-09-09T00:36:30;6.53;;;5.93;;
53650;SDS011;39552;45.776;15.892;2022-09-09T00:39:01;7.53;;;5.50;;
53650;SDS011;39552;45.776;15.892;2022-09-09T00:41:35;9.50;;;5.60;;
53650;SDS011;39552;45.776;15.892;2022-09-09T00:44:17;9.45;;;5.97;;
53650;SDS011;39552;45.776;15.892;2022-09-09T00:46:54;5.53;;;4.90;;
53650;SDS011;39552;45.776;15.892;2022-09-09T00:49:30;6.13;;;5.05;;
53650;SDS011;39552;45.776;15.892;2022-09-09T00:52:09;8.30;;;6.10;;
53650;SDS011;39552;45.776;15.892;2022-09-09T00:57:21;5.95;;;5.25;;
53650;SDS011;39552;45.776;15.892;2022-09-09T00:59:55;9.77;;;5.88;;
53650;SDS011;39552;45.776;15.892;2022-09-09T01:02:26;7.53;;;6.53;;
53650;SDS011;39552;45.776;15.892;2022-09-09T01:07:25;6.05;;;5.55;;
53650;SDS011;39552;45.776;15.892;2022-09-09T01:09:52;12.02;;;5.82;;
53650;SDS011;39552;45.776;15.892;2022-09-09T01:12:30;6.40;;;5.70;;
53650;SDS011;39552;45.776;15.892;2022-09-09T01:15:09;8.25;;;5.15;;
53650;SDS011;39552;45.776;15.892;2022-09-09T01:17:41;6.30;;;5.53;;
53650;SDS011;39552;45.776;15.892;2022-09-09T01:20:17;6.40;;;5.57;;
53650;SDS011;39552;45.776;15.892;2022-09-09T01:22:52;8.23;;;6.15;;
53650;SDS011;39552;45.776;15.892;2022-09-09T01:28:34;8.32;;;6.22;;
53650;SDS011;39552;45.776;15.892;2022-09-09T01:31:02;7.87;;;6.60;;
53650;SDS011;39552;45.776;15.892;2022-09-09T01:33:30;16.02;;;7.05;;
53650;SDS011;39552;45.776;15.892;2022-09-09T01:35:57;7.30;;;5.75;;
53650;SDS011;39552;45.776;15.892;2022-09-09T01:38:28;7.45;;;6.38;;
53650;SDS011;39552;45.776;15.892;2022-09-09T01:40:57;7.93;;;6.22;;
53650;SDS011;39552;45.776;15.892;2022-09-09T01:43:24;9.17;;;6.10;;
53650;SDS011;39552;45.776;15.892;2022-09-09T01:45:58;10.50;;;6.32;;
53650;SDS011;39552;45.776;15.892;2022-09-09T01:48:26;7.47;;;6.57;;
53650;SDS011;39552;45.776;15.892;2022-09-09T01:50:53;9.65;;;5.93;;
53650;SDS011;39552;45.776;15.892;2022-09-09T01:53:20;7.32;;;5.88;;
53650;SDS011;39552;45.776;15.892;2022-09-09T01:55:49;6.20;;;5.60;;
53650;SDS011;39552;45.776;15.892;2022-09-09T01:58:26;7.30;;;6.15;;
53650;SDS011;39552;45.776;15.892;2022-09-09T02:01:02;10.73;;;6.00;;
53650;SDS011;39552;45.776;15.892;2022-09-09T02:03:35;6.97;;;5.80;;
53650;SDS011;39552;45.776;15.892;2022-09-09T02:06:06;8.60;;;5.97;;
53650;SDS011;39552;45.776;15.892;2022-09-09T02:08:43;7.00;;;6.30;;
53650;SDS011;39552;45.776;15.892;2022-09-09T02:11:15;7.22;;;5.82;;
53650;SDS011;39552;45.776;15.892;2022-09-09T02:13:44;7.97;;;6.13;;
53650;SDS011;39552;45.776;15.892;2022-09-09T02:16:15;6.53;;;5.85;;
53650;SDS011;39552;45.776;15.892;2022-09-09T02:18:48;9.05;;;6.30;;
53650;SDS011;39552;45.776;15.892;2022-09-09T02:21:20;7.60;;;6.65;;
53650;SDS011;39552;45.776;15.892;2022-09-09T02:23:48;8.40;;;6.67;;
53650;SDS011;39552;45.776;15.892;2022-09-09T02:26:16;9.13;;;6.32;;
53650;SDS011;39552;45.776;15.892;2022-09-09T02:28:44;8.05;;;6.68;;
53650;SDS011;39552;45.776;15.892;2022-09-09T02:31:12;6.30;;;5.80;;
53650;SDS011;39552;45.776;15.892;2022-09-09T02:33:45;8.95;;;6.40;;
53650;SDS011;39552;45.776;15.892;2022-09-09T02:36:16;6.57;;;5.65;;
53650;SDS011;39552;45.776;15.892;2022-09-09T02:38:45;7.38;;;5.57;;
53650;SDS011;39552;45.776;15.892;2022-09-09T02:41:13;7.87;;;5.73;;
53650;SDS011;39552;45.776;15.892;2022-09-09T02:43:40;7.07;;;5.78;;
53650;SDS011;39552;45.776;15.892;2022-09-09T02:46:08;7.60;;;4.95;;
53650;SDS011;39552;45.776;15.892;2022-09-09T02:48:51;5.13;;;4.65;;
53650;SDS011;39552;45.776;15.892;2022-09-09T02:51:27;7.13;;;4.70;;
53650;SDS011;39552;45.776;15.892;2022-09-09T02:54:04;5.28;;;4.63;;
53650;SDS011;39552;45.776;15.892;2022-09-09T02:56:43;4.85;;;4.40;;
53650;SDS011;39552;45.776;15.892;2022-09-09T02:59:15;5.32;;;4.82;;
53650;SDS011;39552;45.776;15.892;2022-09-09T03:01:44;7.90;;;4.70;;
53650;SDS011;39552;45.776;15.892;2022-09-09T03:04:11;6.03;;;5.18;;
53650;SDS011;39552;45.776;15.892;2022-09-09T03:06:37;5.75;;;4.50;;
53650;SDS011;39552;45.776;15.892;2022-09-09T03:09:04;6.25;;;4.75;;
53650;SDS011;39552;45.776;15.892;2022-09-09T03:11:31;5.27;;;4.77;;
53650;SDS011;39552;45.776;15.892;2022-09-09T03:13:57;5.15;;;4.38;;
53650;SDS011;39552;45.776;15.892;2022-09-09T03:16:24;7.57;;;5.13;;
53650;SDS011;39552;45.776;15.892;2022-09-09T03:18:52;5.82;;;4.47;;
53650;SDS011;39552;45.776;15.892;2022-09-09T03:21:19;6.30;;;4.53;;
53650;SDS011;39552;45.776;15.892;2022-09-09T03:23:45;10.65;;;4.80;;
53650;SDS011;39552;45.776;15.892;2022-09-09T03:26:12;7.32;;;4.50;;
53650;SDS011;39552;45.776;15.892;2022-09-09T03:28:39;5.07;;;3.90;;
53650;SDS011;39552;45.776;15.892;2022-09-09T03:31:06;5.47;;;3.88;;
53650;SDS011;39552;45.776;15.892;2022-09-09T03:33:33;4.30;;;3.90;;
53650;SDS011;39552;45.776;15.892;2022-09-09T03:36:01;5.38;;;3.78;;
53650;SDS011;39552;45.776;15.892;2022-09-09T03:38:28;7.78;;;2.90;;
53650;SDS011;39552;45.776;15.892;2022-09-09T03:40:55;4.45;;;2.25;;
53650;SDS011;39552;45.776;15.892;2022-09-09T03:43:23;4.10;;;2.20;;
53650;SDS011;39552;45.776;15.892;2022-09-09T03:45:51;3.60;;;2.65;;
53650;SDS011;39552;45.776;15.892;2022-09-09T03:48:18;5.38;;;2.22;;
53650;SDS011;39552;45.776;15.892;2022-09-09T03:50:45;3.33;;;1.92;;
53650;SDS011;39552;45.776;15.892;2022-09-09T03:53:13;1.98;;;1.65;;
53650;SDS011;39552;45.776;15.892;2022-09-09T03:58:10;3.87;;;1.77;;
53650;SDS011;39552;45.776;15.892;2022-09-09T04:00:36;3.80;;;1.65;;
53650;SDS011;39552;45.776;15.892;2022-09-09T04:03:03;2.92;;;1.67;;
53650;SDS011;39552;45.776;15.892;2022-09-09T04:05:30;4.63;;;1.67;;
53650;SDS011;39552;45.776;15.892;2022-09-09T04:07:56;3.65;;;1.35;;
53650;SDS011;39552;45.776;15.892;2022-09-09T04:10:24;1.38;;;1.30;;
53650;SDS011;39552;45.776;15.892;2022-09-09T04:12:51;1.50;;;1.40;;
53650;SDS011;39552;45.776;15.892;2022-09-09T04:15:18;2.08;;;1.50;;
53650;SDS011;39552;45.776;15.892;2022-09-09T04:17:44;1.63;;;1.52;;
53650;SDS011;39552;45.776;15.892;2022-09-09T04:20:11;5.80;;;1.75;;
53650;SDS011;39552;45.776;15.892;2022-09-09T04:22:38;1.83;;;1.50;;
53650;SDS011;39552;45.776;15.892;2022-09-09T04:25:05;1.85;;;1.65;;
53650;SDS011;39552;45.776;15.892;2022-09-09T04:27:35;1.50;;;1.40;;
53650;SDS011;39552;45.776;15.892;2022-09-09T04:30:05;1.50;;;1.40;;
53650;SDS011;39552;45.776;15.892;2022-09-09T04:32:32;2.05;;;1.40;;
53650;SDS011;39552;45.776;15.892;2022-09-09T04:34:59;1.40;;;1.30;;
53650;SDS011;39552;45.776;15.892;2022-09-09T04:37:26;1.92;;;1.60;;
53650;SDS011;39552;45.776;15.892;2022-09-09T04:39:52;1.92;;;1.75;;
53650;SDS011;39552;45.776;15.892;2022-09-09T04:42:19;3.33;;;1.55;;
53650;SDS011;39552;45.776;15.892;2022-09-09T04:44:47;1.52;;;1.42;;
53650;SDS011;39552;45.776;15.892;2022-09-09T04:47:14;2.65;;;1.50;;
53650;SDS011;39552;45.776;15.892;2022-09-09T04:49:41;2.65;;;1.35;;
53650;SDS011;39552;45.776;15.892;2022-09-09T04:52:07;1.73;;;1.63;;
53650;SDS011;39552;45.776;15.892;2022-09-09T04:54:34;1.52;;;1.42;;
53650;SDS011;39552;45.776;15.892;2022-09-09T04:57:00;2.65;;;1.60;;
53650;SDS011;39552;45.776;15.892;2022-09-09T04:59:27;3.60;;;1.70;;
53650;SDS011;39552;45.776;15.892;2022-09-09T05:01:55;1.80;;;1.60;;
53650;SDS011;39552;45.776;15.892;2022-09-09T05:04:22;2.65;;;1.48;;
53650;SDS011;39552;45.776;15.892;2022-09-09T05:06:49;2.17;;;1.63;;
53650;SDS011;39552;45.776;15.892;2022-09-09T05:09:15;3.60;;;1.67;;
53650;SDS011;39552;45.776;15.892;2022-09-09T05:11:42;1.63;;;1.48;;
53650;SDS011;39552;45.776;15.892;2022-09-09T05:14:09;1.88;;;1.30;;
53650;SDS011;39552;45.776;15.892;2022-09-09T05:16:35;2.72;;;1.20;;
53650;SDS011;39552;45.776;15.892;2022-09-09T05:19:03;2.95;;;1.52;;
53650;SDS011;39552;45.776;15.892;2022-09-09T05:21:30;1.55;;;1.45;;
53650;SDS011;39552;45.776;15.892;2022-09-09T05:23:57;1.80;;;1.40;;
53650;SDS011;39552;45.776;15.892;2022-09-09T05:26:23;2.72;;;1.35;;
53650;SDS011;39552;45.776;15.892;2022-09-09T05:28:50;1.58;;;1.10;;
53650;SDS011;39552;45.776;15.892;2022-09-09T05:31:17;1.80;;;1.27;;
53650;SDS011;39552;45.776;15.892;2022-09-09T05:33:45;2.45;;;1.30;;
53650;SDS011;39552;45.776;15.892;2022-09-09T05:36:15;2.83;;;1.00;;
53650;SDS011;39552;45.776;15.892;2022-09-09T05:38:43;1.23;;;1.10;;
53650;SDS011;39552;45.776;15.892;2022-09-09T05:41:11;1.10;;;1.00;;
53650;SDS011;39552;45.776;15.892;2022-09-09T05:43:38;2.13;;;1.15;;
53650;SDS011;39552;45.776;15.892;2022-09-09T05:46:06;0.90;;;0.90;;
53650;SDS011;39552;45.776;15.892;2022-09-09T05:48:34;1.65;;;0.98;;
53650;SDS011;39552;45.776;15.892;2022-09-09T05:51:02;1.20;;;1.10;;
53650;SDS011;39552;45.776;15.892;2022-09-09T05:53:32;1.15;;;1.05;;
53650;SDS011;39552;45.776;15.892;2022-09-09T05:55:59;3.45;;;1.33;;
53650;SDS011;39552;45.776;15.892;2022-09-09T05:58:26;4.78;;;1.02;;
53650;SDS011;39552;45.776;15.892;2022-09-09T06:00:59;1.15;;;0.90;;
53650;SDS011;39552;45.776;15.892;2022-09-09T06:03:27;1.42;;;1.02;;
53650;SDS011;39552;45.776;15.892;2022-09-09T06:05:56;3.03;;;1.20;;
53650;SDS011;39552;45.776;15.892;2022-09-09T06:08:24;2.60;;;1.23;;
53650;SDS011;39552;45.776;15.892;2022-09-09T06:10:52;3.83;;;1.00;;
53650;SDS011;39552;45.776;15.892;2022-09-09T06:13:19;0.88;;;0.85;;
53650;SDS011;39552;45.776;15.892;2022-09-09T06:15:49;1.23;;;0.90;;
53650;SDS011;39552;45.776;15.892;2022-09-09T06:18:16;3.50;;;0.93;;
53650;SDS011;39552;45.776;15.892;2022-09-09T06:20:43;0.80;;;0.80;;
53650;SDS011;39552;45.776;15.892;2022-09-09T06:23:09;1.45;;;0.90;;
53650;SDS011;39552;45.776;15.892;2022-09-09T06:25:36;1.98;;;0.95;;
53650;SDS011;39552;45.776;15.892;2022-09-09T06:28:04;2.35;;;0.90;;
53650;SDS011;39552;45.776;15.892;2022-09-09T06:30:31;1.08;;;0.82;;
53650;SDS011;39552;45.776;15.892;2022-09-09T06:32:58;3.50;;;0.93;;
53650;SDS011;39552;45.776;15.892;2022-09-09T06:35:24;2.10;;;1.10;;
53650;SDS011;39552;45.776;15.892;2022-09-09T06:37:51;2.08;;;0.88;;
53650;SDS011;39552;45.776;15.892;2022-09-09T06:40:18;3.22;;;2.70;;
53650;SDS011;39552;45.776;15.892;2022-09-09T06:42:44;3.70;;;2.35;;
53650;SDS011;39552;45.776;15.892;2022-09-09T06:45:12;7.60;;;1.77;;
53650;SDS011;39552;45.776;15.892;2022-09-09T06:47:39;4.45;;;1.02;;
53650;SDS011;39552;45.776;15.892;2022-09-09T06:50:06;1.38;;;0.90;;
53650;SDS011;39552;45.776;15.892;2022-09-09T06:52:34;2.03;;;1.00;;
53650;SDS011;39552;45.776;15.892;2022-09-09T06:55:01;2.05;;;0.95;;
53650;SDS011;39552;45.776;15.892;2022-09-09T06:57:28;12.70;;;1.70;;
53650;SDS011;39552;45.776;15.892;2022-09-09T07:00:03;85.70;;;5.10;;
53650;SDS011;39552;45.776;15.892;2022-09-09T07:02:32;45.40;;;3.65;;
53650;SDS011;39552;45.776;15.892;2022-09-09T07:04:59;1.73;;;1.30;;
53650;SDS011;39552;45.776;15.892;2022-09-09T07:07:25;3.85;;;1.20;;
53650;SDS011;39552;45.776;15.892;2022-09-09T07:09:52;5.40;;;1.30;;
53650;SDS011;39552;45.776;15.892;2022-09-09T07:12:18;9.48;;;1.60;;
53650;SDS011;39552;45.776;15.892;2022-09-09T07:14:45;2.80;;;1.27;;
53650;SDS011;39552;45.776;15.892;2022-09-09T07:17:14;1.60;;;1.20;;
53650;SDS011;39552;45.776;15.892;2022-09-09T07:19:42;4.32;;;1.70;;
53650;SDS011;39552;45.776;15.892;2022-09-09T07:22:08;4.93;;;2.20;;
53650;SDS011;39552;45.776;15.892;2022-09-09T07:24:35;2.30;;;2.10;;
53650;SDS011;39552;45.776;15.892;2022-09-09T07:27:01;8.80;;;1.92;;
53650;SDS011;39552;45.776;15.892;2022-09-09T07:29:28;43.08;;;5.15;;
53650;SDS011;39552;45.776;15.892;2022-09-09T07:31:55;41.45;;;5.25;;
53650;SDS011;39552;45.776;15.892;2022-09-09T07:34:21;183.50;;;18.80;;
53650;SDS011;39552;45.776;15.892;2022-09-09T07:36:49;18.45;;;4.05;;
53650;SDS011;39552;45.776;15.892;2022-09-09T07:39:16;150.30;;;16.80;;
53650;SDS011;39552;45.776;15.892;2022-09-09T07:41:44;5.43;;;2.05;;
53650;SDS011;39552;45.776;15.892;2022-09-09T07:44:12;43.90;;;5.30;;
53650;SDS011;39552;45.776;15.892;2022-09-09T07:46:40;211.68;;;21.35;;
53650;SDS011;39552;45.776;15.892;2022-09-09T07:49:08;310.95;;;34.22;;
53650;SDS011;39552;45.776;15.892;2022-09-09T07:51:36;21.88;;;3.78;;
53650;SDS011;39552;45.776;15.892;2022-09-09T07:54:06;39.65;;;5.13;;
53650;SDS011;39552;45.776;15.892;2022-09-09T07:56:35;72.63;;;8.23;;
53650;SDS011;39552;45.776;15.892;2022-09-09T07:59:02;84.93;;;9.43;;
53650;SDS011;39552;45.776;15.892;2022-09-09T08:01:30;66.53;;;8.68;;
53650;SDS011;39552;45.776;15.892;2022-09-09T08:04:00;182.80;;;20.58;;
53650;SDS011;39552;45.776;15.892;2022-09-09T08:06:30;22.02;;;3.03;;
53650;SDS011;39552;45.776;15.892;2022-09-09T08:08:58;3.60;;;1.33;;
53650;SDS011;39552;45.776;15.892;2022-09-09T08:11:27;2.38;;;1.20;;
53650;SDS011;39552;45.776;15.892;2022-09-09T08:13:55;2.90;;;1.30;;
53650;SDS011;39552;45.776;15.892;2022-09-09T08:16:28;4.03;;;1.10;;
53650;SDS011;39552;45.776;15.892;2022-09-09T08:18:57;4.63;;;1.27;;
53650;SDS011;39552;45.776;15.892;2022-09-09T08:21:25;1.65;;;1.10;;
53650;SDS011;39552;45.776;15.892;2022-09-09T08:23:53;2.23;;;1.13;;
53650;SDS011;39552;45.776;15.892;2022-09-09T08:26:24;1.85;;;1.20;;
53650;SDS011;39552;45.776;15.892;2022-09-09T08:28:54;1.73;;;1.10;;
53650;SDS011;39552;45.776;15.892;2022-09-09T08:31:22;3.67;;;1.00;;
53650;SDS011;39552;45.776;15.892;2022-09-09T08:33:56;15.63;;;1.98;;
53650;SDS011;39552;45.776;15.892;2022-09-09T08:36:24;4.28;;;1.13;;
53650;SDS011;39552;45.776;15.892;2022-09-09T08:38:53;2.33;;;1.10;;
53650;SDS011;39552;45.776;15.892;2022-09-09T08:44:25;0.82;;;0.82;;
53650;SDS011;39552;45.776;15.892;2022-09-09T08:47:02;2.72;;;1.08;;
53650;SDS011;39552;45.776;15.892;2022-09-09T08:49:40;4.05;;;0.95;;
53650;SDS011;39552;45.776;15.892;2022-09-09T08:52:19;1.02;;;0.98;;
53650;SDS011;39552;45.776;15.892;2022-09-09T08:54:51;1.55;;;1.02;;
53650;SDS011;39552;45.776;15.892;2022-09-09T08:57:21;2.00;;;0.90;;
53650;SDS011;39552;45.776;15.892;2022-09-09T08:59:53;6.53;;;1.20;;
53650;SDS011;39552;45.776;15.892;2022-09-09T09:02:21;2.05;;;1.10;;
53650;SDS011;39552;45.776;15.892;2022-09-09T09:04:58;48.05;;;4.95;;
53650;SDS011;39552;45.776;15.892;2022-09-09T09:07:35;83.88;;;9.00;;
53650;SDS011;39552;45.776;15.892;2022-09-09T09:10:15;7.45;;;2.60;;
53650;SDS011;39552;45.776;15.892;2022-09-09T09:13:07;2.40;;;1.10;;
53650;SDS011;39552;45.776;15.892;2022-09-09T09:15:41;2.25;;;1.13;;
53650;SDS011;39552;45.776;15.892;2022-09-09T09:18:10;4.57;;;1.65;;
53650;SDS011;39552;45.776;15.892;2022-09-09T09:20:41;6.25;;;1.52;;
53650;SDS011;39552;45.776;15.892;2022-09-09T09:23:16;3.67;;;1.23;;
53650;SDS011;39552;45.776;15.892;2022-09-09T09:25:47;0.98;;;0.80;;
53650;SDS011;39552;45.776;15.892;2022-09-09T09:28:15;1.02;;;0.90;;
53650;SDS011;39552;45.776;15.892;2022-09-09T09:30:46;3.15;;;1.00;;
53650;SDS011;39552;45.776;15.892;2022-09-09T09:33:18;1.23;;;1.10;;
53650;SDS011;39552;45.776;15.892;2022-09-09T09:35:48;4.32;;;0.93;;
53650;SDS011;39552;45.776;15.892;2022-09-09T09:38:16;6.55;;;1.10;;
53650;SDS011;39552;45.776;15.892;2022-09-09T09:41:04;1.13;;;0.90;;
53650;SDS011;39552;45.776;15.892;2022-09-09T09:43:31;2.03;;;0.80;;
53650;SDS011;39552;45.776;15.892;2022-09-09T09:46:04;2.10;;;1.90;;
53650;SDS011;39552;45.776;15.892;2022-09-09T09:48:43;9.93;;;3.30;;
53650;SDS011;39552;45.776;15.892;2022-09-09T09:51:22;3.78;;;0.88;;
53650;SDS011;39552;45.776;15.892;2022-09-09T09:53:50;3.87;;;1.00;;
53650;SDS011;39552;45.776;15.892;2022-09-09T09:56:25;1.73;;;0.90;;
53650;SDS011;39552;45.776;15.892;2022-09-09T09:58:54;0.80;;;0.80;;
53650;SDS011;39552;45.776;15.892;2022-09-09T10:01:23;27.58;;;1.65;;
53650;SDS011;39552;45.776;15.892;2022-09-09T10:03:52;17.20;;;1.92;;
53650;SDS011;39552;45.776;15.892;2022-09-09T10:06:29;2.83;;;1.02;;
53650;SDS011;39552;45.776;15.892;2022-09-09T10:08:56;2.17;;;1.00;;
53650;SDS011;39552;45.776;15.892;2022-09-09T10:11:29;1.73;;;0.93;;
53650;SDS011;39552;45.776;15.892;2022-09-09T10:14:08;3.83;;;0.75;;
53650;SDS011;39552;45.776;15.892;2022-09-09T10:16:48;0.90;;;0.80;;
53650;SDS011;39552;45.776;15.892;2022-09-09T10:19:26;3.70;;;0.90;;
53650;SDS011;39552;45.776;15.892;2022-09-09T10:22:02;7.70;;;1.42;;
53650;SDS011;39552;45.776;15.892;2022-09-09T10:27:49;1.10;;;0.70;;
53650;SDS011;39552;45.776;15.892;2022-09-09T10:30:40;14.52;;;1.50;;
53650;SDS011;39552;45.776;15.892;2022-09-09T10:33:20;10.07;;;1.42;;
53650;SDS011;39552;45.776;15.892;2022-09-09T10:35:57;5.55;;;1.27;;
53650;SDS011;39552;45.776;15.892;2022-09-09T10:38:29;2.65;;;1.00;;
53650;SDS011;39552;45.776;15.892;2022-09-09T10:41:03;1.02;;;1.00;;
53650;SDS011;39552;45.776;15.892;2022-09-09T10:43:42;2.03;;;0.90;;
53650;SDS011;39552;45.776;15.892;2022-09-09T10:46:26;2.50;;;1.10;;
53650;SDS011;39552;45.776;15.892;2022-09-09T10:49:05;24.15;;;2.72;;
53650;SDS011;39552;45.776;15.892;2022-09-09T10:51:50;5.43;;;1.30;;
53650;SDS011;39552;45.776;15.892;2022-09-09T10:54:30;3.88;;;1.05;;
53650;SDS011;39552;45.776;15.892;2022-09-09T10:57:08;1.08;;;1.00;;
53650;SDS011;39552;45.776;15.892;2022-09-09T10:59:40;3.65;;;1.20;;
53650;SDS011;39552;45.776;15.892;2022-09-09T11:02:13;1.55;;;1.20;;
53650;SDS011;39552;45.776;15.892;2022-09-09T11:04:45;10.93;;;1.70;;
53650;SDS011;39552;45.776;15.892;2022-09-09T11:07:22;5.75;;;1.40;;
53650;SDS011;39552;45.776;15.892;2022-09-09T11:09:55;8.32;;;1.20;;
53650;SDS011;39552;45.776;15.892;2022-09-09T11:12:25;2.92;;;1.08;;
53650;SDS011;39552;45.776;15.892;2022-09-09T11:17:26;1.92;;;1.17;;
53650;SDS011;39552;45.776;15.892;2022-09-09T11:20:06;2.83;;;0.88;;
53650;SDS011;39552;45.776;15.892;2022-09-09T11:22:39;8.55;;;1.23;;
53650;SDS011;39552;45.776;15.892;2022-09-09T11:25:15;3.70;;;1.20;;
53650;SDS011;39552;45.776;15.892;2022-09-09T11:27:50;4.00;;;1.17;;
53650;SDS011;39552;45.776;15.892;2022-09-09T11:30:25;1.05;;;1.00;;
53650;SDS011;39552;45.776;15.892;2022-09-09T11:33:24;2.13;;;1.30;;
53650;SDS011;39552;45.776;15.892;2022-09-09T11:36:10;3.40;;;1.10;;
53650;SDS011;39552;45.776;15.892;2022-09-09T11:38:50;3.10;;;1.38;;
53650;SDS011;39552;45.776;15.892;2022-09-09T11:41:19;1.75;;;1.00;;
53650;SDS011;39552;45.776;15.892;2022-09-09T11:43:47;2.73;;;0.97;;
53650;SDS011;39552;45.776;15.892;2022-09-09T11:48:45;45.03;;;4.03;;
53650;SDS011;39552;45.776;15.892;2022-09-09T11:51:27;13.32;;;2.70;;
53650;SDS011;39552;45.776;15.892;2022-09-09T11:53:55;31.17;;;3.20;;
53650;SDS011;39552;45.776;15.892;2022-09-09T11:56:29;21.30;;;2.10;;
53650;SDS011;39552;45.776;15.892;2022-09-09T11:58:58;39.53;;;3.63;;
53650;SDS011;39552;45.776;15.892;2022-09-09T12:01:34;14.90;;;1.98;;
53650;SDS011;39552;45.776;15.892;2022-09-09T12:04:13;6.10;;;1.27;;
53650;SDS011;39552;45.776;15.892;2022-09-09T12:06:50;4.72;;;1.38;;
53650;SDS011;39552;45.776;15.892;2022-09-09T12:09:25;7.45;;;1.30;;
53650;SDS011;39552;45.776;15.892;2022-09-09T12:15:00;4.57;;;1.52;;
53650;SDS011;39552;45.776;15.892;2022-09-09T12:17:44;14.43;;;2.00;;
53650;SDS011;39552;45.776;15.892;2022-09-09T12:22:45;3.13;;;1.45;;
53650;SDS011;39552;45.776;15.892;2022-09-09T12:25:23;6.40;;;1.60;;
53650;SDS011;39552;45.776;15.892;2022-09-09T12:28:02;6.70;;;1.98;;
53650;SDS011;39552;45.776;15.892;2022-09-09T12:30:34;6.20;;;2.30;;
53650;SDS011;39552;45.776;15.892;2022-09-09T12:33:08;10.13;;;2.03;;
53650;SDS011;39552;45.776;15.892;2022-09-09T12:35:37;4.93;;;1.75;;
53650;SDS011;39552;45.776;15.892;2022-09-09T12:38:10;4.53;;;1.65;;
53650;SDS011;39552;45.776;15.892;2022-09-09T12:40:42;8.20;;;1.67;;
53650;SDS011;39552;45.776;15.892;2022-09-09T12:43:18;3.83;;;1.55;;
53650;SDS011;39552;45.776;15.892;2022-09-09T12:45:45;4.50;;;1.70;;
53650;SDS011;39552;45.776;15.892;2022-09-09T12:48:12;5.63;;;1.80;;
53650;SDS011;39552;45.776;15.892;2022-09-09T12:50:43;6.78;;;1.70;;
53650;SDS011;39552;45.776;15.892;2022-09-09T12:53:14;4.50;;;1.67;;
53650;SDS011;39552;45.776;15.892;2022-09-09T12:55:52;4.50;;;1.58;;
53650;SDS011;39552;45.776;15.892;2022-09-09T12:58:21;5.60;;;1.58;;
53650;SDS011;39552;45.776;15.892;2022-09-09T13:00:49;4.13;;;1.33;;
53650;SDS011;39552;45.776;15.892;2022-09-09T13:03:17;2.03;;;1.25;;
53650;SDS011;39552;45.776;15.892;2022-09-09T13:05:45;3.13;;;1.50;;
53650;SDS011;39552;45.776;15.892;2022-09-09T13:08:13;4.75;;;1.20;;
53650;SDS011;39552;45.776;15.892;2022-09-09T13:10:43;4.75;;;1.20;;
53650;SDS011;39552;45.776;15.892;2022-09-09T13:13:26;3.40;;;1.50;;
53650;SDS011;39552;45.776;15.892;2022-09-09T13:15:54;6.95;;;1.58;;
53650;SDS011;39552;45.776;15.892;2022-09-09T13:18:23;7.80;;;1.85;;
53650;SDS011;39552;45.776;15.892;2022-09-09T13:20:53;3.40;;;1.48;;
53650;SDS011;39552;45.776;15.892;2022-09-09T13:23:21;3.28;;;1.48;;
53650;SDS011;39552;45.776;15.892;2022-09-09T13:25:52;3.72;;;1.50;;
53650;SDS011;39552;45.776;15.892;2022-09-09T13:28:21;5.03;;;1.50;;
53650;SDS011;39552;45.776;15.892;2022-09-09T13:30:56;8.63;;;1.90;;
53650;SDS011;39552;45.776;15.892;2022-09-09T13:33:29;6.60;;;1.80;;
53650;SDS011;39552;45.776;15.892;2022-09-09T13:35:58;3.83;;;1.65;;
53650;SDS011;39552;45.776;15.892;2022-09-09T13:38:29;3.13;;;1.70;;
53650;SDS011;39552;45.776;15.892;2022-09-09T13:40:58;7.35;;;1.63;;
53650;SDS011;39552;45.776;15.892;2022-09-09T13:43:26;3.55;;;2.15;;
53650;SDS011;39552;45.776;15.892;2022-09-09T13:45:55;5.43;;;1.98;;
53650;SDS011;39552;45.776;15.892;2022-09-09T13:48:23;4.68;;;2.28;;
53650;SDS011;39552;45.776;15.892;2022-09-09T13:50:53;4.80;;;1.85;;
53650;SDS011;39552;45.776;15.892;2022-09-09T13:53:21;9.45;;;1.98;;
53650;SDS011;39552;45.776;15.892;2022-09-09T13:55:49;5.07;;;1.58;;
53650;SDS011;39552;45.776;15.892;2022-09-09T13:58:18;5.05;;;2.25;;
53650;SDS011;39552;45.776;15.892;2022-09-09T14:00:45;1.95;;;1.63;;
53650;SDS011;39552;45.776;15.892;2022-09-09T14:03:12;2.25;;;1.70;;
53650;SDS011;39552;45.776;15.892;2022-09-09T14:05:39;4.78;;;1.60;;
53650;SDS011;39552;45.776;15.892;2022-09-09T14:08:06;4.78;;;1.90;;
53650;SDS011;39552;45.776;15.892;2022-09-09T14:10:34;2.55;;;1.63;;
53650;SDS011;39552;45.776;15.892;2022-09-09T14:13:02;2.58;;;1.92;;
53650;SDS011;39552;45.776;15.892;2022-09-09T14:15:28;2.15;;;1.45;;
53650;SDS011;39552;45.776;15.892;2022-09-09T14:17:55;1.60;;;1.42;;
53650;SDS011;39552;45.776;15.892;2022-09-09T14:20:22;2.92;;;1.38;;
53650;SDS011;39552;45.776;15.892;2022-09-09T14:22:48;2.60;;;1.13;;
53650;SDS011;39552;45.776;15.892;2022-09-09T14:25:15;2.92;;;1.30;;
53650;SDS011;39552;45.776;15.892;2022-09-09T14:27:41;3.20;;;1.50;;
53650;SDS011;39552;45.776;15.892;2022-09-09T14:30:10;1.97;;;1.30;;
53650;SDS011;39552;45.776;15.892;2022-09-09T14:35:04;1.48;;;1.20;;
53650;SDS011;39552;45.776;15.892;2022-09-09T14:37:30;2.92;;;1.35;;
53650;SDS011;39552;45.776;15.892;2022-09-09T14:39:57;1.95;;;1.33;;
53650;SDS011;39552;45.776;15.892;2022-09-09T14:42:24;6.30;;;1.45;;
53650;SDS011;39552;45.776;15.892;2022-09-09T14:44:51;2.67;;;1.27;;
53650;SDS011;39552;45.776;15.892;2022-09-09T14:47:19;1.92;;;1.50;;
53650;SDS011;39552;45.776;15.892;2022-09-09T14:49:45;1.50;;;1.40;;
53650;SDS011;39552;45.776;15.892;2022-09-09T14:52:12;1.60;;;1.50;;
53650;SDS011;39552;45.776;15.892;2022-09-09T14:54:39;2.95;;;1.35;;
53650;SDS011;39552;45.776;15.892;2022-09-09T14:57:05;1.65;;;1.40;;
53650;SDS011;39552;45.776;15.892;2022-09-09T14:59:32;3.45;;;1.50;;
53650;SDS011;39552;45.776;15.892;2022-09-09T15:01:59;5.18;;;1.50;;
53650;SDS011;39552;45.776;15.892;2022-09-09T15:04:27;2.50;;;1.33;;
53650;SDS011;39552;45.776;15.892;2022-09-09T15:06:53;1.25;;;1.10;;
53650;SDS011;39552;45.776;15.892;2022-09-09T15:09:20;3.95;;;1.20;;
53650;SDS011;39552;45.776;15.892;2022-09-09T15:11:47;6.13;;;1.40;;
53650;SDS011;39552;45.776;15.892;2022-09-09T15:14:13;2.70;;;1.50;;
53650;SDS011;39552;45.776;15.892;2022-09-09T15:16:40;9.52;;;1.52;;
53650;SDS011;39552;45.776;15.892;2022-09-09T15:19:10;4.25;;;1.45;;
53650;SDS011;39552;45.776;15.892;2022-09-09T15:21:38;2.25;;;1.40;;